sensor_id;sensor_type;location;lat;lon;timestamp;P1;durP1;ratioP1;P2;durP2;ratioP2
21890;SDS011;11110;52.386;16.940;2023-11-19T00:00:44;49.90;;;19.67;;
21890;SDS011;11110;52.386;16.940;2023-11-19T00:03:39;52.93;;;20.67;;
21890;SDS011;11110;52.386;16.940;2023-11-19T00:06:08;51.53;;;20.40;;
21890;SDS011;11110;52.386;16.940;2023-11-19T00:08:38;56.97;;;21.73;;
21890;SDS011;11110;52.386;16.940;2023-11-19T00:11:06;58.70;;;22.53;;
21890;SDS011;11110;52.386;16.940;2023-11-19T00:13:36;45.33;;;20.20;;
21890;SDS011;11110;52.386;16.940;2023-11-19T00:16:05;50.63;;;20.77;;
21890;SDS011;11110;52.386;16.940;2023-11-19T00:18:36;52.17;;;21.37;;
21890;SDS011;11110;52.386;16.940;2023-11-19T00:21:05;43.87;;;19.37;;
21890;SDS011;11110;52.386;16.940;2023-11-19T00:23:35;54.77;;;22.80;;
21890;SDS011;11110;52.386;16.940;2023-11-19T00:26:03;47.37;;;21.57;;
21890;SDS011;11110;52.386;16.940;2023-11-19T00:28:33;54.17;;;21.73;;
21890;SDS011;11110;52.386;16.940;2023-11-19T00:31:06;55.70;;;20.87;;
21890;SDS011;11110;52.386;16.940;2023-11-19T00:33:35;57.50;;;20.40;;
21890;SDS011;11110;52.386;16.940;2023-11-19T00:36:16;56.67;;;21.33;;
21890;SDS011;11110;52.386;16.940;2023-11-19T00:38:44;50.40;;;20.60;;
21890;SDS011;11110;52.386;16.940;2023-11-19T00:41:13;50.23;;;20.33;;
21890;SDS011;11110;52.386;16.940;2023-11-19T00:43:43;53.67;;;22.60;;
21890;SDS011;11110;52.386;16.940;2023-11-19T00:46:13;42.80;;;18.33;;
21890;SDS011;11110;52.386;16.940;2023-11-19T00:48:42;55.33;;;20.97;;
21890;SDS011;11110;52.386;16.940;2023-11-19T00:51:11;44.67;;;20.30;;
21890;SDS011;11110;52.386;16.940;2023-11-19T00:53:40;47.57;;;20.00;;
21890;SDS011;11110;52.386;16.940;2023-11-19T00:56:10;53.30;;;21.93;;
21890;SDS011;11110;52.386;16.940;2023-11-19T00:58:39;52.53;;;22.67;;
21890;SDS011;11110;52.386;16.940;2023-11-19T01:01:08;50.17;;;21.80;;
21890;SDS011;11110;52.386;16.940;2023-11-19T01:03:38;51.77;;;21.53;;
21890;SDS011;11110;52.386;16.940;2023-11-19T01:06:07;47.93;;;19.67;;
21890;SDS011;11110;52.386;16.940;2023-11-19T01:08:36;46.57;;;19.63;;
21890;SDS011;11110;52.386;16.940;2023-11-19T01:11:04;49.03;;;19.87;;
21890;SDS011;11110;52.386;16.940;2023-11-19T01:13:33;52.23;;;20.03;;
21890;SDS011;11110;52.386;16.940;2023-11-19T01:16:02;54.07;;;22.30;;
21890;SDS011;11110;52.386;16.940;2023-11-19T01:18:30;43.77;;;20.07;;
21890;SDS011;11110;52.386;16.940;2023-11-19T01:21:00;51.23;;;20.73;;
21890;SDS011;11110;52.386;16.940;2023-11-19T01:23:29;57.70;;;22.63;;
21890;SDS011;11110;52.386;16.940;2023-11-19T01:25:57;50.87;;;21.03;;
21890;SDS011;11110;52.386;16.940;2023-11-19T01:28:26;51.53;;;22.23;;
21890;SDS011;11110;52.386;16.940;2023-11-19T01:30:54;64.77;;;24.97;;
21890;SDS011;11110;52.386;16.940;2023-11-19T01:33:23;52.53;;;22.23;;
21890;SDS011;11110;52.386;16.940;2023-11-19T01:35:51;49.03;;;22.20;;
21890;SDS011;11110;52.386;16.940;2023-11-19T01:38:21;44.50;;;19.53;;
21890;SDS011;11110;52.386;16.940;2023-11-19T01:40:49;56.03;;;21.80;;
21890;SDS011;11110;52.386;16.940;2023-11-19T01:46:09;57.60;;;23.90;;
21890;SDS011;11110;52.386;16.940;2023-11-19T01:48:39;49.10;;;21.60;;
21890;SDS011;11110;52.386;16.940;2023-11-19T01:51:11;53.57;;;22.37;;
21890;SDS011;11110;52.386;16.940;2023-11-19T01:53:44;47.27;;;20.40;;
21890;SDS011;11110;52.386;16.940;2023-11-19T01:56:13;47.57;;;18.90;;
21890;SDS011;11110;52.386;16.940;2023-11-19T01:58:43;61.00;;;23.00;;
21890;SDS011;11110;52.386;16.940;2023-11-19T02:01:13;50.83;;;18.87;;
21890;SDS011;11110;52.386;16.940;2023-11-19T02:03:43;52.50;;;19.80;;
21890;SDS011;11110;52.386;16.940;2023-11-19T02:06:11;52.70;;;20.83;;
21890;SDS011;11110;52.386;16.940;2023-11-19T02:08:40;61.50;;;21.83;;
21890;SDS011;11110;52.386;16.940;2023-11-19T02:11:10;55.33;;;21.20;;
21890;SDS011;11110;52.386;16.940;2023-11-19T02:13:40;50.80;;;20.37;;
21890;SDS011;11110;52.386;16.940;2023-11-19T02:16:10;50.57;;;19.13;;
21890;SDS011;11110;52.386;16.940;2023-11-19T02:18:39;54.67;;;21.33;;
21890;SDS011;11110;52.386;16.940;2023-11-19T02:21:07;52.97;;;20.53;;
21890;SDS011;11110;52.386;16.940;2023-11-19T02:23:37;52.77;;;20.50;;
21890;SDS011;11110;52.386;16.940;2023-11-19T02:26:10;56.07;;;20.93;;
21890;SDS011;11110;52.386;16.940;2023-11-19T02:28:44;56.27;;;20.73;;
21890;SDS011;11110;52.386;16.940;2023-11-19T02:31:12;50.77;;;20.17;;
21890;SDS011;11110;52.386;16.940;2023-11-19T02:33:41;50.70;;;20.27;;
21890;SDS011;11110;52.386;16.940;2023-11-19T02:36:10;54.87;;;22.73;;
21890;SDS011;11110;52.386;16.940;2023-11-19T02:38:38;47.97;;;18.50;;
21890;SDS011;11110;52.386;16.940;2023-11-19T02:41:07;54.40;;;23.23;;
21890;SDS011;11110;52.386;16.940;2023-11-19T02:43:37;57.27;;;21.93;;
21890;SDS011;11110;52.386;16.940;2023-11-19T02:46:07;48.13;;;20.43;;
21890;SDS011;11110;52.386;16.940;2023-11-19T02:48:39;52.87;;;20.13;;
21890;SDS011;11110;52.386;16.940;2023-11-19T02:51:08;54.53;;;21.47;;
21890;SDS011;11110;52.386;16.940;2023-11-19T02:53:37;51.40;;;21.03;;
21890;SDS011;11110;52.386;16.940;2023-11-19T02:56:07;57.53;;;20.70;;
21890;SDS011;11110;52.386;16.940;2023-11-19T02:58:46;53.00;;;21.57;;
21890;SDS011;11110;52.386;16.940;2023-11-19T03:01:22;52.17;;;20.60;;
21890;SDS011;11110;52.386;16.940;2023-11-19T03:03:58;58.23;;;22.13;;
21890;SDS011;11110;52.386;16.940;2023-11-19T03:06:30;57.53;;;21.50;;
21890;SDS011;11110;52.386;16.940;2023-11-19T03:08:59;46.67;;;18.63;;
21890;SDS011;11110;52.386;16.940;2023-11-19T03:11:33;62.53;;;21.27;;
21890;SDS011;11110;52.386;16.940;2023-11-19T03:14:02;54.13;;;21.33;;
21890;SDS011;11110;52.386;16.940;2023-11-19T03:16:32;53.97;;;20.70;;
21890;SDS011;11110;52.386;16.940;2023-11-19T03:19:00;55.37;;;20.27;;
21890;SDS011;11110;52.386;16.940;2023-11-19T03:21:31;56.03;;;21.43;;
21890;SDS011;11110;52.386;16.940;2023-11-19T03:23:59;52.07;;;21.30;;
21890;SDS011;11110;52.386;16.940;2023-11-19T03:26:28;59.23;;;22.27;;
21890;SDS011;11110;52.386;16.940;2023-11-19T03:28:56;54.27;;;21.00;;
21890;SDS011;11110;52.386;16.940;2023-11-19T03:31:25;54.40;;;21.43;;
21890;SDS011;11110;52.386;16.940;2023-11-19T03:33:55;60.67;;;21.87;;
21890;SDS011;11110;52.386;16.940;2023-11-19T03:36:25;49.67;;;20.03;;
21890;SDS011;11110;52.386;16.940;2023-11-19T03:39:00;47.80;;;19.60;;
21890;SDS011;11110;52.386;16.940;2023-11-19T03:41:29;58.57;;;22.43;;
21890;SDS011;11110;52.386;16.940;2023-11-19T03:44:08;50.97;;;20.23;;
21890;SDS011;11110;52.386;16.940;2023-11-19T03:46:36;49.57;;;20.37;;
21890;SDS011;11110;52.386;16.940;2023-11-19T03:49:07;55.40;;;20.83;;
21890;SDS011;11110;52.386;16.940;2023-11-19T03:51:36;49.77;;;19.13;;
21890;SDS011;11110;52.386;16.940;2023-11-19T03:54:04;57.70;;;22.23;;
21890;SDS011;11110;52.386;16.940;2023-11-19T03:56:34;50.13;;;20.57;;
21890;SDS011;11110;52.386;16.940;2023-11-19T03:59:03;50.00;;;20.47;;
21890;SDS011;11110;52.386;16.940;2023-11-19T04:01:31;55.10;;;21.27;;
21890;SDS011;11110;52.386;16.940;2023-11-19T04:04:00;50.37;;;20.70;;
21890;SDS011;11110;52.386;16.940;2023-11-19T04:06:30;60.00;;;21.40;;
21890;SDS011;11110;52.386;16.940;2023-11-19T04:08:59;47.97;;;19.53;;
21890;SDS011;11110;52.386;16.940;2023-11-19T04:11:27;53.27;;;20.23;;
21890;SDS011;11110;52.386;16.940;2023-11-19T04:13:56;46.40;;;18.63;;
21890;SDS011;11110;52.386;16.940;2023-11-19T04:16:27;54.37;;;20.07;;
21890;SDS011;11110;52.386;16.940;2023-11-19T04:18:57;61.63;;;22.63;;
21890;SDS011;11110;52.386;16.940;2023-11-19T04:21:25;51.47;;;19.30;;
21890;SDS011;11110;52.386;16.940;2023-11-19T04:23:55;58.20;;;21.90;;
21890;SDS011;11110;52.386;16.940;2023-11-19T04:26:24;57.73;;;20.77;;
21890;SDS011;11110;52.386;16.940;2023-11-19T04:28:52;51.90;;;18.83;;
21890;SDS011;11110;52.386;16.940;2023-11-19T04:31:21;52.07;;;21.90;;
21890;SDS011;11110;52.386;16.940;2023-11-19T04:33:52;54.00;;;19.60;;
21890;SDS011;11110;52.386;16.940;2023-11-19T04:36:21;49.67;;;19.37;;
21890;SDS011;11110;52.386;16.940;2023-11-19T04:38:51;48.03;;;20.13;;
21890;SDS011;11110;52.386;16.940;2023-11-19T04:41:20;51.97;;;19.73;;
21890;SDS011;11110;52.386;16.940;2023-11-19T04:43:49;47.10;;;18.20;;
21890;SDS011;11110;52.386;16.940;2023-11-19T04:46:17;53.03;;;19.93;;
21890;SDS011;11110;52.386;16.940;2023-11-19T04:48:46;47.93;;;17.40;;
21890;SDS011;11110;52.386;16.940;2023-11-19T04:51:15;57.70;;;20.73;;
21890;SDS011;11110;52.386;16.940;2023-11-19T04:53:43;50.33;;;18.70;;
21890;SDS011;11110;52.386;16.940;2023-11-19T04:56:12;50.97;;;19.07;;
21890;SDS011;11110;52.386;16.940;2023-11-19T04:58:43;54.87;;;18.90;;
21890;SDS011;11110;52.386;16.940;2023-11-19T05:01:13;49.33;;;18.23;;
21890;SDS011;11110;52.386;16.940;2023-11-19T05:03:44;50.67;;;17.90;;
21890;SDS011;11110;52.386;16.940;2023-11-19T05:06:13;45.20;;;18.30;;
21890;SDS011;11110;52.386;16.940;2023-11-19T05:08:42;42.10;;;15.73;;
21890;SDS011;11110;52.386;16.940;2023-11-19T05:11:10;52.33;;;18.93;;
21890;SDS011;11110;52.386;16.940;2023-11-19T05:13:46;46.73;;;16.90;;
21890;SDS011;11110;52.386;16.940;2023-11-19T05:16:14;46.37;;;17.30;;
21890;SDS011;11110;52.386;16.940;2023-11-19T05:18:44;44.63;;;16.07;;
21890;SDS011;11110;52.386;16.940;2023-11-19T05:21:12;43.67;;;18.87;;
21890;SDS011;11110;52.386;16.940;2023-11-19T05:23:41;41.77;;;15.93;;
21890;SDS011;11110;52.386;16.940;2023-11-19T05:26:16;43.73;;;17.40;;
21890;SDS011;11110;52.386;16.940;2023-11-19T05:28:46;42.30;;;15.27;;
21890;SDS011;11110;52.386;16.940;2023-11-19T05:31:15;44.63;;;17.00;;
21890;SDS011;11110;52.386;16.940;2023-11-19T05:33:45;44.80;;;16.93;;
21890;SDS011;11110;52.386;16.940;2023-11-19T05:36:13;43.70;;;16.03;;
21890;SDS011;11110;52.386;16.940;2023-11-19T05:38:42;42.03;;;16.47;;
21890;SDS011;11110;52.386;16.940;2023-11-19T05:41:11;42.73;;;15.90;;
21890;SDS011;11110;52.386;16.940;2023-11-19T05:43:39;46.07;;;17.57;;
21890;SDS011;11110;52.386;16.940;2023-11-19T05:46:09;41.83;;;15.53;;
21890;SDS011;11110;52.386;16.940;2023-11-19T05:48:43;40.20;;;16.63;;
21890;SDS011;11110;52.386;16.940;2023-11-19T05:51:13;45.53;;;17.67;;
21890;SDS011;11110;52.386;16.940;2023-11-19T05:53:43;46.47;;;15.20;;
21890;SDS011;11110;52.386;16.940;2023-11-19T05:56:13;41.77;;;15.23;;
21890;SDS011;11110;52.386;16.940;2023-11-19T05:58:43;41.17;;;16.67;;
21890;SDS011;11110;52.386;16.940;2023-11-19T06:01:13;48.33;;;18.40;;
21890;SDS011;11110;52.386;16.940;2023-11-19T06:03:42;42.63;;;15.37;;
21890;SDS011;11110;52.386;16.940;2023-11-19T06:06:14;38.43;;;15.07;;
21890;SDS011;11110;52.386;16.940;2023-11-19T06:08:42;47.03;;;16.77;;
21890;SDS011;11110;52.386;16.940;2023-11-19T06:11:11;40.60;;;16.10;;
21890;SDS011;11110;52.386;16.940;2023-11-19T06:13:45;40.87;;;16.07;;
21890;SDS011;11110;52.386;16.940;2023-11-19T06:16:15;49.10;;;16.63;;
21890;SDS011;11110;52.386;16.940;2023-11-19T06:18:44;32.53;;;13.87;;
21890;SDS011;11110;52.386;16.940;2023-11-19T06:21:13;40.63;;;16.10;;
21890;SDS011;11110;52.386;16.940;2023-11-19T06:23:41;38.40;;;15.10;;
21890;SDS011;11110;52.386;16.940;2023-11-19T06:26:10;36.90;;;12.97;;
21890;SDS011;11110;52.386;16.940;2023-11-19T06:28:38;45.47;;;17.27;;
21890;SDS011;11110;52.386;16.940;2023-11-19T06:31:07;49.53;;;16.97;;
21890;SDS011;11110;52.386;16.940;2023-11-19T06:33:37;42.30;;;15.60;;
21890;SDS011;11110;52.386;16.940;2023-11-19T06:36:05;38.03;;;15.50;;
21890;SDS011;11110;52.386;16.940;2023-11-19T06:38:36;42.83;;;17.27;;
21890;SDS011;11110;52.386;16.940;2023-11-19T06:41:06;43.20;;;17.50;;
21890;SDS011;11110;52.386;16.940;2023-11-19T06:43:36;41.17;;;15.93;;
21890;SDS011;11110;52.386;16.940;2023-11-19T06:46:14;40.60;;;16.17;;
21890;SDS011;11110;52.386;16.940;2023-11-19T06:48:44;35.33;;;14.90;;
21890;SDS011;11110;52.386;16.940;2023-11-19T06:51:13;38.97;;;14.47;;
21890;SDS011;11110;52.386;16.940;2023-11-19T06:53:42;37.77;;;15.63;;
21890;SDS011;11110;52.386;16.940;2023-11-19T06:56:17;41.37;;;16.40;;
21890;SDS011;11110;52.386;16.940;2023-11-19T06:58:47;41.07;;;16.17;;
21890;SDS011;11110;52.386;16.940;2023-11-19T07:01:16;40.43;;;15.13;;
21890;SDS011;11110;52.386;16.940;2023-11-19T07:03:47;39.83;;;14.73;;
21890;SDS011;11110;52.386;16.940;2023-11-19T07:06:16;38.47;;;14.23;;
21890;SDS011;11110;52.386;16.940;2023-11-19T07:08:45;43.53;;;14.90;;
21890;SDS011;11110;52.386;16.940;2023-11-19T07:11:13;44.63;;;16.17;;
21890;SDS011;11110;52.386;16.940;2023-11-19T07:13:43;35.33;;;13.90;;
21890;SDS011;11110;52.386;16.940;2023-11-19T07:16:13;35.90;;;14.27;;
21890;SDS011;11110;52.386;16.940;2023-11-19T07:18:42;35.90;;;14.83;;
21890;SDS011;11110;52.386;16.940;2023-11-19T07:21:12;35.37;;;14.77;;
21890;SDS011;11110;52.386;16.940;2023-11-19T07:23:41;32.60;;;13.30;;
21890;SDS011;11110;52.386;16.940;2023-11-19T07:26:10;38.77;;;15.03;;
21890;SDS011;11110;52.386;16.940;2023-11-19T07:28:39;43.30;;;16.10;;
21890;SDS011;11110;52.386;16.940;2023-11-19T07:31:07;37.40;;;15.03;;
21890;SDS011;11110;52.386;16.940;2023-11-19T07:33:36;40.00;;;15.00;;
21890;SDS011;11110;52.386;16.940;2023-11-19T07:36:05;38.17;;;14.97;;
21890;SDS011;11110;52.386;16.940;2023-11-19T07:38:35;43.80;;;15.30;;
21890;SDS011;11110;52.386;16.940;2023-11-19T07:41:05;41.13;;;14.77;;
21890;SDS011;11110;52.386;16.940;2023-11-19T07:43:35;33.27;;;13.70;;
21890;SDS011;11110;52.386;16.940;2023-11-19T07:46:04;37.90;;;14.00;;
21890;SDS011;11110;52.386;16.940;2023-11-19T07:48:35;36.83;;;13.07;;
21890;SDS011;11110;52.386;16.940;2023-11-19T07:51:03;32.00;;;12.83;;
21890;SDS011;11110;52.386;16.940;2023-11-19T07:53:32;34.07;;;12.80;;
21890;SDS011;11110;52.386;16.940;2023-11-19T07:56:02;33.10;;;11.93;;
21890;SDS011;11110;52.386;16.940;2023-11-19T07:58:31;35.13;;;12.77;;
21890;SDS011;11110;52.386;16.940;2023-11-19T08:00:59;39.23;;;14.27;;
21890;SDS011;11110;52.386;16.940;2023-11-19T08:03:28;39.33;;;14.23;;
21890;SDS011;11110;52.386;16.940;2023-11-19T08:05:57;30.83;;;11.80;;
21890;SDS011;11110;52.386;16.940;2023-11-19T08:08:26;34.33;;;12.80;;
21890;SDS011;11110;52.386;16.940;2023-11-19T08:10:56;38.43;;;14.03;;
21890;SDS011;11110;52.386;16.940;2023-11-19T08:13:26;33.33;;;13.57;;
21890;SDS011;11110;52.386;16.940;2023-11-19T08:15:54;42.43;;;14.27;;
21890;SDS011;11110;52.386;16.940;2023-11-19T08:18:23;33.33;;;12.37;;
21890;SDS011;11110;52.386;16.940;2023-11-19T08:20:51;35.17;;;12.67;;
21890;SDS011;11110;52.386;16.940;2023-11-19T08:23:20;33.70;;;12.13;;
21890;SDS011;11110;52.386;16.940;2023-11-19T08:25:50;36.17;;;12.90;;
21890;SDS011;11110;52.386;16.940;2023-11-19T08:28:19;35.20;;;13.10;;
21890;SDS011;11110;52.386;16.940;2023-11-19T08:30:48;30.10;;;11.53;;
21890;SDS011;11110;52.386;16.940;2023-11-19T08:33:17;31.40;;;11.73;;
21890;SDS011;11110;52.386;16.940;2023-11-19T08:35:45;33.63;;;13.20;;
21890;SDS011;11110;52.386;16.940;2023-11-19T08:38:14;31.67;;;12.87;;
21890;SDS011;11110;52.386;16.940;2023-11-19T08:40:57;33.77;;;13.23;;
21890;SDS011;11110;52.386;16.940;2023-11-19T08:43:27;27.83;;;11.47;;
21890;SDS011;11110;52.386;16.940;2023-11-19T08:45:57;31.27;;;11.90;;
21890;SDS011;11110;52.386;16.940;2023-11-19T08:48:26;32.73;;;11.73;;
21890;SDS011;11110;52.386;16.940;2023-11-19T08:50:54;32.40;;;12.27;;
21890;SDS011;11110;52.386;16.940;2023-11-19T08:53:23;37.50;;;13.67;;
21890;SDS011;11110;52.386;16.940;2023-11-19T08:55:51;37.37;;;12.63;;
21890;SDS011;11110;52.386;16.940;2023-11-19T08:58:20;29.90;;;11.83;;
21890;SDS011;11110;52.386;16.940;2023-11-19T09:00:48;27.40;;;12.03;;
21890;SDS011;11110;52.386;16.940;2023-11-19T09:03:18;28.40;;;11.27;;
21890;SDS011;11110;52.386;16.940;2023-11-19T09:05:47;30.77;;;12.27;;
21890;SDS011;11110;52.386;16.940;2023-11-19T09:08:16;32.30;;;13.00;;
21890;SDS011;11110;52.386;16.940;2023-11-19T09:10:44;27.13;;;11.97;;
21890;SDS011;11110;52.386;16.940;2023-11-19T09:13:13;33.10;;;13.40;;
21890;SDS011;11110;52.386;16.940;2023-11-19T09:15:41;30.33;;;12.80;;
21890;SDS011;11110;52.386;16.940;2023-11-19T09:18:10;26.00;;;11.47;;
21890;SDS011;11110;52.386;16.940;2023-11-19T09:20:40;32.43;;;12.23;;
21890;SDS011;11110;52.386;16.940;2023-11-19T09:23:09;33.03;;;12.23;;
21890;SDS011;11110;52.386;16.940;2023-11-19T09:25:37;36.10;;;12.67;;
21890;SDS011;11110;52.386;16.940;2023-11-19T09:28:08;33.27;;;13.17;;
21890;SDS011;11110;52.386;16.940;2023-11-19T09:30:37;29.47;;;12.23;;
21890;SDS011;11110;52.386;16.940;2023-11-19T09:33:05;24.53;;;11.67;;
21890;SDS011;11110;52.386;16.940;2023-11-19T09:35:34;30.03;;;12.57;;
21890;SDS011;11110;52.386;16.940;2023-11-19T09:38:04;28.37;;;11.73;;
21890;SDS011;11110;52.386;16.940;2023-11-19T09:40:33;26.07;;;11.50;;
21890;SDS011;11110;52.386;16.940;2023-11-19T09:43:01;29.47;;;13.03;;
21890;SDS011;11110;52.386;16.940;2023-11-19T09:45:30;31.10;;;10.80;;
21890;SDS011;11110;52.386;16.940;2023-11-19T09:48:06;32.33;;;12.93;;
21890;SDS011;11110;52.386;16.940;2023-11-19T09:50:36;31.87;;;12.10;;
21890;SDS011;11110;52.386;16.940;2023-11-19T09:53:07;34.30;;;13.67;;
21890;SDS011;11110;52.386;16.940;2023-11-19T09:55:36;27.83;;;11.53;;
21890;SDS011;11110;52.386;16.940;2023-11-19T09:58:04;30.87;;;12.23;;
21890;SDS011;11110;52.386;16.940;2023-11-19T10:00:34;38.47;;;12.50;;
21890;SDS011;11110;52.386;16.940;2023-11-19T10:03:02;29.33;;;12.93;;
21890;SDS011;11110;52.386;16.940;2023-11-19T10:05:34;27.87;;;11.43;;
21890;SDS011;11110;52.386;16.940;2023-11-19T10:08:05;31.23;;;11.63;;
21890;SDS011;11110;52.386;16.940;2023-11-19T10:10:36;32.20;;;12.97;;
21890;SDS011;11110;52.386;16.940;2023-11-19T10:13:04;37.07;;;13.80;;
21890;SDS011;11110;52.386;16.940;2023-11-19T10:15:35;32.10;;;12.43;;
21890;SDS011;11110;52.386;16.940;2023-11-19T10:18:05;33.70;;;12.00;;
21890;SDS011;11110;52.386;16.940;2023-11-19T10:20:36;35.73;;;12.43;;
21890;SDS011;11110;52.386;16.940;2023-11-19T10:23:05;35.17;;;12.03;;
21890;SDS011;11110;52.386;16.940;2023-11-19T10:25:35;33.10;;;10.93;;
21890;SDS011;11110;52.386;16.940;2023-11-19T10:28:04;31.37;;;11.77;;
21890;SDS011;11110;52.386;16.940;2023-11-19T10:30:32;27.43;;;10.93;;
21890;SDS011;11110;52.386;16.940;2023-11-19T10:33:04;28.43;;;11.50;;
21890;SDS011;11110;52.386;16.940;2023-11-19T10:35:35;29.37;;;11.00;;
21890;SDS011;11110;52.386;16.940;2023-11-19T10:38:13;27.70;;;10.97;;
21890;SDS011;11110;52.386;16.940;2023-11-19T10:40:44;29.67;;;11.00;;
21890;SDS011;11110;52.386;16.940;2023-11-19T10:43:13;32.30;;;10.63;;
21890;SDS011;11110;52.386;16.940;2023-11-19T10:45:41;33.13;;;10.73;;
21890;SDS011;11110;52.386;16.940;2023-11-19T10:48:10;21.33;;;8.23;;
21890;SDS011;11110;52.386;16.940;2023-11-19T10:50:40;26.83;;;9.37;;
21890;SDS011;11110;52.386;16.940;2023-11-19T10:53:10;24.63;;;9.67;;
21890;SDS011;11110;52.386;16.940;2023-11-19T10:55:40;24.43;;;8.60;;
21890;SDS011;11110;52.386;16.940;2023-11-19T10:58:10;29.47;;;10.03;;
21890;SDS011;11110;52.386;16.940;2023-11-19T11:00:44;30.33;;;10.70;;
21890;SDS011;11110;52.386;16.940;2023-11-19T11:03:16;26.40;;;9.23;;
21890;SDS011;11110;52.386;16.940;2023-11-19T11:05:46;29.83;;;9.97;;
21890;SDS011;11110;52.386;16.940;2023-11-19T11:08:16;29.23;;;9.50;;
21890;SDS011;11110;52.386;16.940;2023-11-19T11:10:46;30.23;;;9.70;;
21890;SDS011;11110;52.386;16.940;2023-11-19T11:13:24;23.47;;;9.07;;
21890;SDS011;11110;52.386;16.940;2023-11-19T11:15:56;25.30;;;8.70;;
21890;SDS011;11110;52.386;16.940;2023-11-19T11:18:26;28.33;;;10.13;;
21890;SDS011;11110;52.386;16.940;2023-11-19T11:20:55;30.77;;;10.17;;
21890;SDS011;11110;52.386;16.940;2023-11-19T11:29:40;27.80;;;10.90;;
21890;SDS011;11110;52.386;16.940;2023-11-19T11:32:27;31.87;;;10.33;;
21890;SDS011;11110;52.386;16.940;2023-11-19T11:37:53;35.13;;;11.90;;
21890;SDS011;11110;52.386;16.940;2023-11-19T11:40:28;35.07;;;11.30;;
21890;SDS011;11110;52.386;16.940;2023-11-19T11:42:58;35.67;;;11.97;;
21890;SDS011;11110;52.386;16.940;2023-11-19T11:45:37;28.10;;;11.20;;
21890;SDS011;11110;52.386;16.940;2023-11-19T11:48:10;30.20;;;11.43;;
21890;SDS011;11110;52.386;16.940;2023-11-19T11:50:55;32.47;;;11.07;;
21890;SDS011;11110;52.386;16.940;2023-11-19T11:53:25;24.93;;;10.87;;
21890;SDS011;11110;52.386;16.940;2023-11-19T11:55:55;27.93;;;9.73;;
21890;SDS011;11110;52.386;16.940;2023-11-19T11:58:31;29.50;;;11.20;;
21890;SDS011;11110;52.386;16.940;2023-11-19T12:01:03;29.63;;;11.60;;
21890;SDS011;11110;52.386;16.940;2023-11-19T12:03:33;31.23;;;12.10;;
21890;SDS011;11110;52.386;16.940;2023-11-19T12:06:02;26.03;;;10.87;;
21890;SDS011;11110;52.386;16.940;2023-11-19T12:08:31;30.90;;;12.47;;
21890;SDS011;11110;52.386;16.940;2023-11-19T12:11:19;32.83;;;12.97;;
21890;SDS011;11110;52.386;16.940;2023-11-19T12:13:55;34.80;;;14.20;;
21890;SDS011;11110;52.386;16.940;2023-11-19T12:16:27;32.97;;;12.87;;
21890;SDS011;11110;52.386;16.940;2023-11-19T12:18:57;28.90;;;11.63;;
21890;SDS011;11110;52.386;16.940;2023-11-19T12:21:32;32.20;;;12.70;;
21890;SDS011;11110;52.386;16.940;2023-11-19T12:24:04;38.80;;;13.33;;
21890;SDS011;11110;52.386;16.940;2023-11-19T12:26:38;28.77;;;11.50;;
21890;SDS011;11110;52.386;16.940;2023-11-19T12:29:07;36.80;;;13.33;;
21890;SDS011;11110;52.386;16.940;2023-11-19T12:31:38;30.30;;;12.53;;
21890;SDS011;11110;52.386;16.940;2023-11-19T12:34:11;29.30;;;12.87;;
21890;SDS011;11110;52.386;16.940;2023-11-19T12:36:40;36.13;;;14.00;;
21890;SDS011;11110;52.386;16.940;2023-11-19T12:39:10;37.53;;;13.57;;
21890;SDS011;11110;52.386;16.940;2023-11-19T12:41:51;33.73;;;13.33;;
21890;SDS011;11110;52.386;16.940;2023-11-19T12:44:21;33.03;;;14.17;;
21890;SDS011;11110;52.386;16.940;2023-11-19T12:47:04;33.53;;;13.67;;
21890;SDS011;11110;52.386;16.940;2023-11-19T12:49:34;33.80;;;12.53;;
21890;SDS011;11110;52.386;16.940;2023-11-19T12:52:10;33.57;;;12.77;;
21890;SDS011;11110;52.386;16.940;2023-11-19T12:54:42;34.53;;;13.70;;
21890;SDS011;11110;52.386;16.940;2023-11-19T12:57:11;33.03;;;13.07;;
21890;SDS011;11110;52.386;16.940;2023-11-19T12:59:39;25.97;;;12.23;;
21890;SDS011;11110;52.386;16.940;2023-11-19T13:02:27;27.83;;;11.67;;
21890;SDS011;11110;52.386;16.940;2023-11-19T13:05:22;32.03;;;13.03;;
21890;SDS011;11110;52.386;16.940;2023-11-19T13:07:59;23.20;;;10.67;;
21890;SDS011;11110;52.386;16.940;2023-11-19T13:10:29;28.70;;;12.37;;
21890;SDS011;11110;52.386;16.940;2023-11-19T13:13:02;35.70;;;13.97;;
21890;SDS011;11110;52.386;16.940;2023-11-19T13:15:32;27.50;;;12.13;;
21890;SDS011;11110;52.386;16.940;2023-11-19T13:18:02;26.50;;;11.77;;
21890;SDS011;11110;52.386;16.940;2023-11-19T13:20:31;29.50;;;12.60;;
21890;SDS011;11110;52.386;16.940;2023-11-19T13:23:00;30.73;;;12.07;;
21890;SDS011;11110;52.386;16.940;2023-11-19T13:25:29;38.30;;;13.23;;
21890;SDS011;11110;52.386;16.940;2023-11-19T13:27:59;28.70;;;12.43;;
21890;SDS011;11110;52.386;16.940;2023-11-19T13:30:28;29.27;;;12.53;;
21890;SDS011;11110;52.386;16.940;2023-11-19T13:32:57;32.93;;;13.20;;
21890;SDS011;11110;52.386;16.940;2023-11-19T13:35:27;31.00;;;12.07;;
21890;SDS011;11110;52.386;16.940;2023-11-19T13:37:55;35.53;;;13.33;;
21890;SDS011;11110;52.386;16.940;2023-11-19T13:40:24;30.67;;;12.50;;
21890;SDS011;11110;52.386;16.940;2023-11-19T13:42:53;33.90;;;12.47;;
21890;SDS011;11110;52.386;16.940;2023-11-19T13:45:22;32.07;;;12.20;;
21890;SDS011;11110;52.386;16.940;2023-11-19T13:47:50;31.17;;;12.90;;
21890;SDS011;11110;52.386;16.940;2023-11-19T13:50:19;30.63;;;12.47;;
21890;SDS011;11110;52.386;16.940;2023-11-19T13:52:51;34.43;;;12.87;;
21890;SDS011;11110;52.386;16.940;2023-11-19T13:55:19;38.60;;;13.47;;
21890;SDS011;11110;52.386;16.940;2023-11-19T13:57:55;22.60;;;11.37;;
21890;SDS011;11110;52.386;16.940;2023-11-19T14:00:24;27.00;;;12.30;;
21890;SDS011;11110;52.386;16.940;2023-11-19T14:02:53;32.77;;;13.20;;
21890;SDS011;11110;52.386;16.940;2023-11-19T14:05:21;42.20;;;14.83;;
21890;SDS011;11110;52.386;16.940;2023-11-19T14:07:54;27.07;;;12.13;;
21890;SDS011;11110;52.386;16.940;2023-11-19T14:10:23;33.37;;;13.23;;
21890;SDS011;11110;52.386;16.940;2023-11-19T14:12:52;35.53;;;13.27;;
21890;SDS011;11110;52.386;16.940;2023-11-19T14:15:20;32.23;;;13.30;;
21890;SDS011;11110;52.386;16.940;2023-11-19T14:17:49;34.70;;;13.17;;
21890;SDS011;11110;52.386;16.940;2023-11-19T14:20:17;30.57;;;12.47;;
21890;SDS011;11110;52.386;16.940;2023-11-19T14:22:46;29.83;;;12.93;;
21890;SDS011;11110;52.386;16.940;2023-11-19T14:25:17;27.03;;;12.23;;
21890;SDS011;11110;52.386;16.940;2023-11-19T14:27:46;26.87;;;12.10;;
21890;SDS011;11110;52.386;16.940;2023-11-19T14:30:14;26.20;;;11.97;;
21890;SDS011;11110;52.386;16.940;2023-11-19T14:32:43;33.63;;;13.70;;
21890;SDS011;11110;52.386;16.940;2023-11-19T14:35:16;29.97;;;12.50;;
21890;SDS011;11110;52.386;16.940;2023-11-19T14:37:47;32.40;;;13.30;;